Time;durP1;ratioP1;P1;durP2;ratioP2;P2;SDS_P1;SDS_P2;PMS_P1;PMS_P2;Temp;Humidity;BMP_temperature;BMP_pressure;BME280_temperature;BME280_humidity;BME280_pressure;Samples;Min_cycle;Max_cycle;Signal;HPM_P1;HPM_P2
2022/12/15 00:39:40;;;;;;;13.40;4.67;;;-1.40;99.90;;;;;;5018491;28;20175;-91
2022/12/15 00:42:07;;;;;;;10.33;5.03;;;-1.50;99.90;;;;;;5014544;28;20132;-92
2022/12/15 00:44:36;;;;;;;10.57;5.23;;;-1.60;99.90;;;;;;5017197;28;20045;-91
2022/12/15 00:47:02;;;;;;;11.30;4.77;;;-1.70;99.90;;;;;;5011598;28;20061;-91
2022/12/15 01:20:17;;;;;;;10.23;5.07;;;-1.30;99.90;;;;;;5032323;28;20046;-90
2022/12/15 01:22:55;;;;;;;9.13;4.63;;;-1.70;99.90;;;;;;5032000;28;20058;-91
2022/12/15 01:25:24;;;;;;;;;;;-1.50;99.90;;;;;;4998935;28;20061;-91
2022/12/15 01:27:51;;;;;;;12.60;5.73;;;-1.30;99.90;;;;;;5009608;28;20351;-90
2022/12/15 01:30:20;;;;;;;10.57;5.53;;;-1.30;99.90;;;;;;5012907;28;20057;-91
2022/12/15 01:32:52;;;;;;;12.70;5.60;;;-1.20;99.90;;;;;;5012733;28;20068;-92
2022/12/15 01:35:18;;;;;;;17.30;6.30;;;-1.30;99.90;;;;;;5019650;28;20041;-90
2022/12/15 01:37:44;;;;;;;16.90;6.43;;;-1.40;99.90;;;;;;4994262;28;20046;-91
2022/12/15 01:43:03;;;;;;;10.03;5.77;;;-1.50;99.90;;;;;;5043353;28;20067;-91
2022/12/15 01:45:28;;;;;;;14.43;6.20;;;-0.80;99.90;;;;;;5033866;28;20073;-91
2022/12/15 01:48:04;;;;;;;12.90;5.87;;;-1.60;99.90;;;;;;5026355;28;20055;-91
2022/12/15 01:50:34;;;;;;;14.63;6.80;;;-1.70;99.90;;;;;;5015597;28;20111;-90
2022/12/15 01:53:00;;;;;;;16.77;6.20;;;-1.80;99.90;;;;;;5014864;28;20058;-91
2022/12/15 01:55:29;;;;;;;11.60;6.30;;;-1.80;99.90;;;;;;4984062;28;20503;-90
2022/12/15 01:58:00;;;;;;;15.50;6.43;;;-1.40;99.90;;;;;;4993642;28;20057;-91
2022/12/15 02:00:26;;;;;;;;;;;-0.80;99.90;;;;;;5017537;28;20506;-91
2022/12/15 02:02:53;;;;;;;13.70;6.27;;;-1.90;99.90;;;;;;5015797;28;19924;-91
2022/12/15 02:05:20;;;;;;;12.23;5.47;;;-1.90;99.90;;;;;;5022649;28;20045;-92
2022/12/15 02:07:46;;;;;;;10.27;5.30;;;-1.90;99.90;;;;;;5011533;28;20033;-90
2022/12/15 02:10:12;;;;;;;11.03;5.27;;;-1.90;99.90;;;;;;5015007;28;20045;-92
2022/12/15 02:12:46;;;;;;;12.30;5.70;;;-1.90;99.90;;;;;;4997114;28;20044;-92
2022/12/15 02:15:25;;;;;;;9.00;5.00;;;-2.00;99.90;;;;;;5000049;28;20050;-92
2022/12/15 02:18:47;;;;;;;12.83;5.57;;;-2.00;99.90;;;;;;5005388;28;20048;-91
2022/12/15 02:21:18;;;;;;;12.70;5.50;;;-2.00;99.90;;;;;;4962496;28;20055;-92
2022/12/15 02:24:21;;;;;;;11.33;4.97;;;-2.10;99.90;;;;;;4972534;28;20054;-91
2022/12/15 02:27:12;;;;;;;10.63;4.10;;;-2.10;99.90;;;;;;4993457;28;20053;-94
2022/12/15 02:29:38;;;;;;;9.40;4.53;;;-2.20;99.90;;;;;;4995031;28;20046;-90
2022/12/15 02:32:14;;;;;;;10.97;4.70;;;-2.20;99.90;;;;;;5011067;28;20076;-91
2022/12/15 02:34:54;;;;;;;11.67;4.23;;;-2.20;99.90;;;;;;4996990;28;20052;-92
2022/12/15 02:37:28;;;;;;;11.93;5.07;;;-2.20;99.90;;;;;;5027942;28;20096;-90
2022/12/15 02:39:54;;;;;;;;;;;-2.30;99.90;;;;;;5015206;28;20076;-91
2022/12/15 02:42:22;;;;;;;12.47;4.10;;;-2.20;99.90;;;;;;5012863;28;19971;-92
2022/12/15 02:45:11;;;;;;;8.77;4.03;;;-2.30;99.90;;;;;;4997772;28;20526;-91
2022/12/15 02:47:44;;;;;;;9.83;4.20;;;-2.20;99.90;;;;;;5015860;28;20049;-92
2022/12/15 02:50:47;;;;;;;10.50;4.40;;;-2.30;99.90;;;;;;5012745;28;20184;-91
2022/12/15 02:53:16;;;;;;;10.23;3.97;;;-2.30;99.90;;;;;;5029485;28;20077;-91
2022/12/15 02:56:09;;;;;;;10.13;3.60;;;-2.00;99.90;;;;;;5031198;28;20107;-92
2022/12/15 02:59:03;;;;;;;10.33;3.37;;;-2.40;99.90;;;;;;5026602;28;20046;-90
2022/12/15 03:01:59;;;;;;;10.47;3.90;;;-2.50;99.90;;;;;;5014249;28;20060;-91
2022/12/15 03:04:26;;;;;;;12.57;3.20;;;-2.50;99.90;;;;;;5028400;28;20045;-91
2022/12/15 03:06:57;;;;;;;10.40;3.37;;;-2.50;99.90;;;;;;5025089;28;20407;-91
2022/12/15 03:09:23;;;;;;;12.00;3.73;;;-2.50;99.90;;;;;;5014021;28;20060;-91
2022/12/15 03:11:49;;;;;;;11.23;3.30;;;-2.50;99.90;;;;;;5014779;28;20046;-90
2022/12/15 03:14:15;;;;;;;10.47;3.27;;;-2.50;99.90;;;;;;4996587;28;20738;-91
2022/12/15 03:16:41;;;;;;;7.23;3.10;;;-2.50;99.90;;;;;;5011168;28;20056;-91
2022/12/15 03:19:06;;;;;;;9.17;2.70;;;-2.40;99.90;;;;;;4995375;28;20045;-91
2022/12/15 03:21:32;;;;;;;9.10;2.97;;;-2.40;99.90;;;;;;4998309;28;20057;-92
2022/12/15 03:23:58;;;;;;;8.57;2.80;;;-2.40;99.90;;;;;;4992857;28;20125;-91
2022/12/15 03:26:23;;;;;;;6.90;2.43;;;-2.40;99.90;;;;;;4975573;28;20065;-92
2022/12/15 03:28:49;;;;;;;8.07;2.40;;;-1.60;99.90;;;;;;5001363;28;20049;-91
2022/12/15 03:31:16;;;;;;;17.70;2.77;;;-2.00;99.90;;;;;;4985282;28;20054;-91
2022/12/15 03:33:42;;;;;;;10.10;2.30;;;-1.90;99.90;;;;;;4963921;28;20103;-92
2022/12/15 03:36:08;;;;;;;6.33;2.10;;;-1.80;99.90;;;;;;5011169;28;20049;-94
2022/12/15 03:38:33;;;;;;;8.47;1.80;;;-1.70;99.90;;;;;;4995913;28;20049;-91
2022/12/15 03:40:59;;;;;;;5.00;1.93;;;-1.70;99.90;;;;;;5017867;28;20544;-89
2022/12/15 03:43:28;;;;;;;7.73;1.83;;;-1.70;99.90;;;;;;4998801;28;20048;-91
2022/12/15 03:45:54;;;;;;;7.43;1.80;;;-1.60;99.90;;;;;;5017733;28;20700;-91
2022/12/15 03:48:19;;;;;;;8.67;1.73;;;-1.60;99.90;;;;;;4976001;28;20049;-91
2022/12/15 03:50:46;;;;;;;10.00;2.07;;;-1.60;99.90;;;;;;5001673;28;20050;-91
2022/12/15 03:53:12;;;;;;;8.67;2.07;;;-1.50;99.90;;;;;;5014934;28;20143;-92
2022/12/15 03:55:38;;;;;;;5.47;1.70;;;-1.80;99.90;;;;;;5034418;28;20197;-91
2022/12/15 03:58:04;;;;;;;19.83;7.97;;;-2.00;99.90;;;;;;4994611;28;20054;-91
2022/12/15 04:00:29;;;;;;;7.77;2.47;;;-2.10;99.90;;;;;;5001136;28;20048;-91
2022/12/15 04:03:03;;;;;;;24.90;8.30;;;-2.00;99.90;;;;;;5003445;28;20059;-90
2022/12/15 04:05:35;;;;;;;8.63;2.30;;;-2.30;99.90;;;;;;5025984;28;20454;-90
2022/12/15 04:08:01;;;;;;;8.20;2.57;;;-2.40;99.90;;;;;;5010050;28;20042;-91
2022/12/15 04:10:31;;;;;;;7.13;2.20;;;-2.60;99.90;;;;;;5017124;28;20057;-90
2022/12/15 04:13:00;;;;;;;9.70;2.30;;;-2.70;99.90;;;;;;5033522;28;20042;-91
2022/12/15 04:15:27;;;;;;;8.27;2.83;;;-2.70;99.90;;;;;;5033468;28;20053;-90
2022/12/15 04:17:54;;;;;;;8.37;3.03;;;-2.80;99.90;;;;;;5006106;28;20037;-91
2022/12/15 04:20:21;;;;;;;9.93;2.50;;;-2.90;99.90;;;;;;4999529;28;20500;-91
2022/12/15 04:22:48;;;;;;;8.60;2.50;;;-2.90;99.90;;;;;;4983574;28;20057;-91
2022/12/15 05:31:57;;;;;;;16.90;4.10;;;-2.50;99.90;;;;;;5027857;28;20457;-89
2022/12/15 05:34:28;;;;;;;11.53;3.70;;;-2.40;99.90;;;;;;5029418;28;20053;-89
2022/12/15 05:36:55;;;;;;;16.45;4.43;;;-2.40;99.90;;;;;;5031759;28;20037;-89
2022/12/15 05:39:22;;;;;;;14.53;4.70;;;-2.30;99.90;;;;;;5031543;28;20475;-89
2022/12/15 05:41:52;;;;;;;13.47;4.43;;;-2.30;99.90;;;;;;5049678;28;20666;-88
2022/12/15 05:44:18;;;;;;;16.23;4.53;;;-2.30;99.90;;;;;;5033430;28;20106;-89
2022/12/15 05:46:44;;;;;;;15.67;5.17;;;-2.30;99.90;;;;;;5027006;28;20044;-90
2022/12/15 05:49:15;;;;;;;18.43;5.07;;;-2.20;99.90;;;;;;5031449;28;20041;-89
2022/12/15 05:51:43;;;;;;;12.80;5.28;;;-2.20;99.90;;;;;;5049652;28;20107;-89
2022/12/15 05:55:04;;;;;;;11.47;5.20;;;-2.30;99.90;;;;;;5087009;27;20791;-73
2022/12/15 05:57:30;;;;;;;15.87;5.03;;;-2.20;99.90;;;;;;5066137;28;20047;-74
2022/12/15 05:59:56;;;;;;;18.17;5.57;;;-2.20;99.90;;;;;;5065885;28;20048;-74
2022/12/15 06:02:21;;;;;;;15.30;5.33;;;-2.20;99.90;;;;;;5047758;28;20124;-75
2022/12/15 06:04:47;;;;;;;16.73;5.10;;;-2.10;99.90;;;;;;5045581;28;20044;-75
2022/12/15 06:07:12;;;;;;;14.87;5.10;;;-2.10;99.90;;;;;;5029905;28;20045;-75
2022/12/15 06:09:38;;;;;;;15.80;4.90;;;-2.10;99.90;;;;;;5050433;28;20114;-75
2022/12/15 06:12:04;;;;;;;11.60;4.47;;;-2.00;99.90;;;;;;5064641;28;20575;-74
2022/12/15 06:14:30;;;;;;;13.83;4.90;;;-2.00;99.90;;;;;;5066284;28;20037;-75
2022/12/15 06:16:55;;;;;;;10.77;4.33;;;-1.90;99.90;;;;;;5050988;28;20061;-75
2022/12/15 06:19:21;;;;;;;10.03;4.67;;;-1.80;99.90;;;;;;5065760;28;20045;-73
2022/12/15 06:21:47;;;;;;;15.90;4.80;;;-1.70;99.90;;;;;;5062001;28;20049;-74
2022/12/15 06:24:13;;;;;;;15.53;4.87;;;-1.70;99.90;;;;;;5063427;28;20045;-76
2022/12/15 06:26:39;;;;;;;11.93;4.27;;;-1.70;99.90;;;;;;5035456;28;20062;-75
2022/12/15 06:29:08;;;;;;;9.13;3.70;;;-1.60;99.90;;;;;;5045426;28;20649;-74
2022/12/15 06:31:35;;;;;;;11.43;4.37;;;-1.70;99.90;;;;;;5065011;28;20601;-75
2022/12/15 06:34:04;;;;;;;12.87;4.07;;;-1.60;99.90;;;;;;5065350;28;20486;-74
2022/12/15 06:36:30;;;;;;;11.00;3.73;;;-1.70;99.90;;;;;;5053674;28;20079;-82
2022/12/15 06:39:00;;;;;;;13.70;4.20;;;-1.70;99.90;;;;;;5064295;28;20121;-76
2022/12/15 06:41:28;;;;;;;11.30;3.87;;;-1.70;99.90;;;;;;5048269;28;20064;-74
2022/12/15 06:43:57;;;;;;;10.27;3.83;;;-1.70;99.90;;;;;;5065287;28;20132;-75
2022/12/15 06:46:24;;;;;;;10.50;4.10;;;-1.70;99.90;;;;;;5036062;28;20044;-78
2022/12/15 06:48:50;;;;;;;8.90;4.10;;;-1.60;99.90;;;;;;5060451;28;20080;-75
2022/12/15 06:51:16;;;;;;;10.87;4.00;;;-1.60;99.90;;;;;;5065332;28;20044;-75
2022/12/15 06:53:52;;;;;;;14.10;3.93;;;-1.50;99.90;;;;;;5046602;28;20174;-75
2022/12/15 06:56:30;;;;;;;9.30;4.20;;;-1.50;99.90;;;;;;5054114;28;20482;-77
2022/12/15 06:58:57;;;;;;;12.10;4.73;;;-1.60;99.90;;;;;;5061581;28;20049;-74
2022/12/15 07:01:24;;;;;;;13.67;4.50;;;-1.50;99.90;;;;;;5064658;28;20057;-74
2022/12/15 07:03:50;;;;;;;13.60;5.13;;;-1.60;99.90;;;;;;5064272;28;20047;-75
2022/12/15 07:06:17;;;;;;;12.67;5.07;;;-1.60;99.90;;;;;;5041633;28;20413;-77
2022/12/15 07:08:47;;;;;;;13.97;5.47;;;-1.60;99.90;;;;;;5046485;28;20134;-76
2022/12/15 07:11:13;;;;;;;12.33;6.13;;;-1.60;99.90;;;;;;5052548;28;20048;-74
2022/12/15 07:13:39;;;;;;;16.93;6.03;;;-1.50;99.90;;;;;;5051312;28;20049;-75
2022/12/15 07:16:06;;;;;;;18.37;6.60;;;-1.50;99.90;;;;;;5050779;28;20442;-75
2022/12/15 07:18:32;;;;;;;17.27;6.67;;;-1.70;99.90;;;;;;5038836;28;20045;-74
2022/12/15 07:21:06;;;;;;;16.77;5.97;;;-1.50;99.90;;;;;;5051240;28;20045;-74
2022/12/15 07:23:32;;;;;;;15.50;6.83;;;-1.50;99.90;;;;;;5044415;28;20036;-74
2022/12/15 07:26:07;;;;;;;18.63;7.13;;;-1.50;99.90;;;;;;5050737;28;20052;-75
2022/12/15 07:28:34;;;;;;;18.87;8.20;;;-1.50;99.90;;;;;;5044726;28;20124;-74
2022/12/15 07:31:06;;;;;;;16.83;8.47;;;-1.40;99.90;;;;;;5058578;28;20429;-76
2022/12/15 07:33:32;;;;;;;16.60;8.33;;;-1.40;99.90;;;;;;5036068;28;20054;-74
2022/12/15 07:35:59;;;;;;;16.50;8.83;;;-1.40;99.90;;;;;;5049062;28;20045;-75
2022/12/15 07:38:26;;;;;;;18.33;8.50;;;-1.40;99.90;;;;;;5034297;28;20053;-75
2022/12/15 07:40:51;;;;;;;20.80;9.13;;;-1.30;99.90;;;;;;5049683;28;20060;-77
2022/12/15 07:43:17;;;;;;;23.30;9.57;;;-1.40;99.90;;;;;;5055241;28;20037;-75
2022/12/15 07:45:43;;;;;;;17.37;9.13;;;-1.40;99.90;;;;;;5061516;28;20041;-75
2022/12/15 07:48:08;;;;;;;15.43;8.40;;;-1.40;99.90;;;;;;5039186;28;20126;-77
2022/12/15 07:50:38;;;;;;;21.47;8.50;;;-1.50;99.90;;;;;;5050008;28;20076;-77
2022/12/15 07:53:04;;;;;;;17.70;9.23;;;-1.60;99.90;;;;;;5052056;28;20067;-77
2022/12/15 07:55:31;;;;;;;16.40;9.87;;;-1.40;99.90;;;;;;5061290;28;20041;-75
2022/12/15 07:57:57;;;;;;;18.80;9.77;;;-1.40;99.90;;;;;;5037693;28;20461;-75
2022/12/15 08:00:22;;;;;;;20.97;10.00;;;-1.40;99.90;;;;;;5050542;28;20075;-81
2022/12/15 08:02:48;;;;;;;19.97;10.03;;;-1.20;99.90;;;;;;5050272;28;20063;-76
2022/12/15 08:05:14;;;;;;;16.63;9.90;;;-1.30;99.90;;;;;;5050001;28;20092;-77
2022/12/15 08:07:39;;;;;;;19.77;10.53;;;-1.30;99.90;;;;;;5035120;28;20327;-74
2022/12/15 08:10:05;;;;;;;24.13;13.00;;;-1.20;99.90;;;;;;5050118;28;20049;-74
2022/12/15 08:12:31;;;;;;;17.30;10.77;;;-1.10;99.90;;;;;;5050696;28;20517;-75
2022/12/15 08:14:57;;;;;;;18.97;9.20;;;-1.10;99.90;;;;;;5045282;28;20041;-77
2022/12/15 08:17:22;;;;;;;23.10;13.40;;;-1.10;99.90;;;;;;5016347;28;20045;-75
2022/12/15 08:19:48;;;;;;;15.20;8.77;;;-1.10;99.90;;;;;;5046660;28;20044;-76
2022/12/15 08:22:14;;;;;;;19.07;9.77;;;-1.30;99.90;;;;;;5037776;28;20068;-77
2022/12/15 08:24:41;;;;;;;18.87;9.10;;;-1.30;99.90;;;;;;5037269;28;20045;-77
2022/12/15 08:27:07;;;;;;;16.70;7.97;;;-1.40;99.90;;;;;;5022436;28;20080;-76
2022/12/15 08:29:33;;;;;;;16.87;7.80;;;-1.20;99.90;;;;;;5034287;28;20056;-76
2022/12/15 08:31:59;;;;;;;18.60;8.00;;;-1.30;99.90;;;;;;5051379;28;20088;-76
2022/12/15 08:34:25;;;;;;;20.57;9.10;;;-1.30;99.90;;;;;;5032198;28;20499;-74
2022/12/15 08:36:52;;;;;;;18.13;8.13;;;-1.20;99.90;;;;;;5002635;28;20184;-79
2022/12/15 08:39:21;;;;;;;20.53;8.87;;;-1.20;99.90;;;;;;4984903;28;20052;-79
2022/12/15 08:41:48;;;;;;;17.73;8.60;;;-1.10;99.90;;;;;;5034637;28;20033;-75
2022/12/15 08:44:16;;;;;;;19.10;10.03;;;-1.10;99.90;;;;;;5032522;28;20037;-79
2022/12/15 08:46:44;;;;;;;13.87;8.50;;;-0.70;99.90;;;;;;5002200;28;20401;-78
2022/12/15 08:49:10;;;;;;;20.33;8.70;;;-0.50;99.90;;;;;;5030938;28;20049;-76
2022/12/15 08:51:36;;;;;;;19.63;8.63;;;-0.40;99.90;;;;;;5000991;28;20110;-78
2022/12/15 08:54:02;;;;;;;19.33;8.90;;;0.10;99.90;;;;;;5000254;28;20057;-76
2022/12/15 08:56:28;;;;;;;17.90;8.93;;;-0.50;99.90;;;;;;5005366;28;20786;-78
2022/12/15 08:58:59;;;;;;;22.23;8.97;;;-0.50;99.90;;;;;;5027199;28;20056;-75
2022/12/15 09:01:27;;;;;;;23.67;7.78;;;-0.60;99.90;;;;;;5019945;28;20068;-78
2022/12/15 09:03:54;;;;;;;22.33;8.83;;;-0.60;99.90;;;;;;5037592;28;20453;-75
2022/12/15 09:06:24;;;;;;;20.40;8.90;;;-0.50;99.90;;;;;;5026236;28;20090;-78
2022/12/15 09:08:55;;;;;;;17.10;9.07;;;-0.50;99.90;;;;;;5015272;28;20056;-78
2022/12/15 09:11:23;;;;;;;16.00;7.57;;;-0.50;99.90;;;;;;5019816;28;20045;-77
2022/12/15 09:13:50;;;;;;;15.50;9.23;;;-0.50;99.90;;;;;;5018307;28;20541;-79
2022/12/15 09:16:20;;;;;;;15.93;8.67;;;-0.40;99.90;;;;;;5026750;28;20056;-82
2022/12/15 09:18:51;;;;;;;20.27;9.13;;;-0.30;99.90;;;;;;5013864;28;20494;-75
2022/12/15 09:21:18;;;;;;;16.58;8.93;;;-0.30;99.90;;;;;;5035490;28;20053;-77
2022/12/15 09:23:51;;;;;;;15.10;8.67;;;-0.20;99.90;;;;;;5019529;28;20558;-75
2022/12/15 09:26:19;;;;;;;17.37;8.53;;;-0.10;99.90;;;;;;5025906;28;20053;-77
2022/12/15 09:28:45;;;;;;;22.70;8.80;;;-0.10;99.90;;;;;;5031660;28;20156;-78
2022/12/15 09:31:13;;;;;;;18.40;8.97;;;0.00;99.90;;;;;;5036398;28;20821;-75
2022/12/15 09:33:40;;;;;;;15.90;8.67;;;0.00;99.90;;;;;;5034837;28;20321;-77
2022/12/15 09:36:08;;;;;;;17.00;8.90;;;0.10;99.90;;;;;;5037671;28;20462;-77
2022/12/15 09:38:35;;;;;;;16.90;8.87;;;0.10;99.90;;;;;;5009007;28;20057;-79
2022/12/15 09:41:34;;;;;;;17.77;9.83;;;0.90;99.90;;;;;;5036256;28;20494;-78
2022/12/15 09:44:13;;;;;;;16.60;9.47;;;0.40;99.90;;;;;;5034914;28;20391;-75
2022/12/15 09:46:54;;;;;;;16.47;9.53;;;0.40;99.90;;;;;;5022994;28;20064;-78
2022/12/15 09:49:32;;;;;;;18.83;9.20;;;0.40;99.90;;;;;;5030909;28;20111;-78
2022/12/15 09:52:06;;;;;;;21.80;8.63;;;0.40;99.90;;;;;;5034406;28;20057;-79
2022/12/15 09:54:33;;;;;;;15.33;9.00;;;0.50;99.90;;;;;;5018811;28;20067;-80
2022/12/15 09:57:22;;;;;;;17.70;9.17;;;0.60;99.90;;;;;;5020783;28;20063;-75
2022/12/15 09:59:48;;;;;;;17.10;8.60;;;0.90;99.90;;;;;;5034283;28;20048;-75
2022/12/15 10:02:16;;;;;;;16.73;8.60;;;0.90;99.90;;;;;;5017909;28;20067;-77
2022/12/15 10:05:05;;;;;;;16.20;8.70;;;1.00;99.90;;;;;;5019628;28;20069;-79
2022/12/15 10:07:42;;;;;;;15.27;8.60;;;1.00;99.90;;;;;;5002286;28;20056;-78
2022/12/15 10:10:26;;;;;;;17.50;8.23;;;1.10;99.90;;;;;;5035671;28;20057;-79
2022/12/15 10:12:55;;;;;;;16.30;7.83;;;1.80;99.90;;;;;;5034986;28;20061;-76
2022/12/15 10:15:28;;;;;;;14.67;7.40;;;2.20;99.90;;;;;;5037345;28;20045;-77
2022/12/15 10:17:53;;;;;;;14.60;6.97;;;2.60;99.90;;;;;;5018472;28;20051;-76
2022/12/15 10:20:23;;;;;;;15.33;7.60;;;2.80;99.90;;;;;;5024719;28;20414;-80
2022/12/15 10:22:50;;;;;;;11.30;7.40;;;3.40;99.90;;;;;;5034386;28;20045;-78
2022/12/15 10:25:23;;;;;;;13.53;7.33;;;3.60;99.90;;;;;;5034065;28;20443;-76
2022/12/15 10:27:58;;;;;;;12.90;7.23;;;2.90;99.90;;;;;;5018835;28;20675;-81
2022/12/15 10:30:26;;;;;;;17.20;7.53;;;3.00;99.90;;;;;;5035350;28;20060;-81
2022/12/15 10:33:10;;;;;;;13.23;6.27;;;3.10;99.90;;;;;;5033398;28;20060;-80
2022/12/15 10:35:38;;;;;;;14.93;7.20;;;2.70;99.90;;;;;;5033892;28;20493;-78
2022/12/15 10:38:21;;;;;;;11.77;7.47;;;2.50;99.90;;;;;;5019941;28;20060;-81
2022/12/15 10:40:51;;;;;;;11.97;7.00;;;2.70;99.90;;;;;;5037796;28;20513;-76
2022/12/15 10:43:35;;;;;;;12.50;6.05;;;2.60;99.90;;;;;;5036347;28;20049;-76
2022/12/15 10:46:04;;;;;;;14.63;7.07;;;2.50;99.90;;;;;;5036982;28;20045;-76
2022/12/15 10:48:30;;;;;;;14.80;7.50;;;2.50;99.90;;;;;;5022657;28;20053;-78
2022/12/15 10:51:31;;;;;;;14.07;7.67;;;2.70;99.90;;;;;;5039659;28;20573;-77
2022/12/15 10:54:09;;;;;;;13.13;8.10;;;3.10;99.90;;;;;;5036754;28;20097;-81
2022/12/15 10:56:58;;;;;;;17.63;8.47;;;3.30;99.90;;;;;;5024677;28;20615;-77
2022/12/15 10:59:32;;;;;;;14.20;7.73;;;3.50;99.90;;;;;;5037093;28;20060;-79
2022/12/15 11:02:20;;;;;;;12.43;7.13;;;3.40;99.90;;;;;;5037949;28;20052;-80
2022/12/15 11:04:57;;;;;;;10.13;6.87;;;3.30;99.90;;;;;;5036843;28;20102;-77
2022/12/15 11:07:29;;;;;;;13.93;7.57;;;3.40;99.90;;;;;;4990373;28;20053;-78
2022/12/15 11:10:07;;;;;;;;;;;3.80;99.90;;;;;;5038962;28;20048;-77
2022/12/15 11:12:51;;;;;;;15.23;6.87;;;3.80;99.90;;;;;;5038349;28;19956;-76
2022/12/15 11:15:22;;;;;;;11.87;6.80;;;4.30;99.90;;;;;;5038406;28;20140;-82
2022/12/15 11:18:00;;;;;;;;;;;4.00;99.90;;;;;;5020836;28;20076;-79
2022/12/15 11:20:37;;;;;;;16.97;6.30;;;4.00;99.90;;;;;;5038600;28;20401;-81
2022/12/15 11:23:18;;;;;;;10.13;6.67;;;4.10;99.90;;;;;;5038423;28;20049;-79
2022/12/15 11:25:46;;;;;;;;;;;4.20;99.90;;;;;;5037343;28;20041;-76
2022/12/15 11:28:45;;;;;;;10.40;5.97;;;4.40;99.90;;;;;;5022008;28;19967;-78
2022/12/15 11:31:40;;;;;;;13.70;6.70;;;4.40;99.90;;;;;;5069850;28;20063;-77
2022/12/15 11:34:25;;;;;;;12.53;6.20;;;4.30;99.90;;;;;;5020648;28;20045;-77
2022/12/15 11:37:29;;;;;;;13.37;6.20;;;4.40;99.90;;;;;;5022416;28;20060;-79
2022/12/15 11:39:55;;;;;;;12.00;6.33;;;4.20;99.90;;;;;;5036466;28;20052;-77
2022/12/15 11:42:47;;;;;;;13.00;6.33;;;3.90;99.90;;;;;;5035504;28;20059;-76
2022/12/15 11:45:13;;;;;;;11.13;6.17;;;3.60;99.90;;;;;;5038230;28;20048;-78
2022/12/15 11:47:47;;;;;;;14.90;6.63;;;3.60;99.90;;;;;;5021952;28;20069;-79
2022/12/15 11:50:26;;;;;;;15.73;5.90;;;3.50;99.90;;;;;;5037866;28;20057;-76
2022/12/15 11:53:18;;;;;;;13.90;6.03;;;3.50;99.90;;;;;;5035261;28;20056;-75
2022/12/15 11:56:14;;;;;;;10.37;5.60;;;3.50;99.90;;;;;;5000415;28;20077;-75
2022/12/15 11:58:49;;;;;;;14.03;5.90;;;3.20;99.90;;;;;;5034541;28;20048;-76
2022/12/15 12:01:30;;;;;;;13.33;6.13;;;3.20;99.90;;;;;;5050050;28;20183;-79
2022/12/15 12:04:17;;;;;;;15.17;5.70;;;3.00;99.90;;;;;;5040836;28;20049;-75
2022/12/15 12:07:07;;;;;;;14.13;5.93;;;2.90;99.90;;;;;;5022319;28;20295;-80
2022/12/15 12:09:52;;;;;;;17.03;6.10;;;3.00;99.90;;;;;;5035600;28;20064;-76
2022/12/15 12:12:19;;;;;;;11.57;5.63;;;2.90;99.90;;;;;;5019127;28;20041;-75
2022/12/15 12:15:27;;;;;;;10.17;5.50;;;3.00;99.90;;;;;;5018999;28;20048;-76
2022/12/15 12:17:59;;;;;;;13.60;6.40;;;2.90;99.90;;;;;;5008237;28;20479;-77
2022/12/15 12:20:50;;;;;;;12.47;6.20;;;3.00;99.90;;;;;;5036434;28;20056;-76
2022/12/15 12:23:22;;;;;;;14.63;6.63;;;3.10;99.90;;;;;;5035550;28;20045;-77
2022/12/15 12:26:04;;;;;;;15.20;7.23;;;3.20;99.90;;;;;;5018565;28;20426;-75
2022/12/15 12:28:51;;;;;;;14.40;6.50;;;3.40;99.90;;;;;;5003715;28;20126;-78
2022/12/15 12:31:55;;;;;;;15.37;6.27;;;3.80;99.90;;;;;;5018606;28;20144;-77
2022/12/15 12:34:58;;;;;;;9.93;5.73;;;4.10;99.90;;;;;;5033334;28;20049;-78
2022/12/15 12:37:32;;;;;;;9.87;5.77;;;4.00;99.90;;;;;;5021745;28;20057;-75
2022/12/15 12:40:26;;;;;;;13.33;6.53;;;3.90;99.90;;;;;;5036926;28;20507;-78
2022/12/15 12:42:56;;;;;;;14.33;6.57;;;3.70;99.90;;;;;;5031794;28;20406;-75
2022/12/15 12:45:35;;;;;;;13.40;5.28;;;3.60;99.90;;;;;;5019108;28;20051;-77
2022/12/15 12:48:36;;;;;;;15.20;6.13;;;3.60;99.90;;;;;;5018268;28;20127;-75
2022/12/15 12:51:25;;;;;;;15.35;4.88;;;3.60;99.90;;;;;;5037014;28;20525;-75
2022/12/15 12:53:51;;;;;;;14.37;6.23;;;3.60;99.90;;;;;;5034412;28;20139;-77
2022/12/15 12:56:40;;;;;;;12.90;6.10;;;3.60;99.90;;;;;;5007884;28;20057;-74
2022/12/15 12:59:29;;;;;;;13.07;5.93;;;3.60;99.90;;;;;;5034394;28;20457;-75
2022/12/15 13:02:10;;;;;;;12.73;5.60;;;3.70;99.90;;;;;;5033321;28;20102;-74
2022/12/15 13:04:41;;;;;;;12.97;5.43;;;3.60;99.90;;;;;;5050707;28;20049;-74
2022/12/15 13:07:28;;;;;;;15.87;5.07;;;3.30;99.90;;;;;;5015659;28;20092;-75
2022/12/15 13:10:17;;;;;;;11.50;4.80;;;3.30;99.90;;;;;;5018912;28;20449;-75
2022/12/15 13:12:53;;;;;;;11.50;5.00;;;3.20;99.90;;;;;;5035420;28;20103;-75
2022/12/15 13:15:36;;;;;;;13.27;4.63;;;3.30;99.90;;;;;;5036337;28;20415;-77
2022/12/15 13:18:21;;;;;;;11.67;4.70;;;3.20;99.90;;;;;;5020185;28;20118;-74
2022/12/15 13:20:52;;;;;;;12.20;4.80;;;3.10;99.90;;;;;;5017373;28;20080;-75
2022/12/15 13:23:21;;;;;;;12.60;4.97;;;3.10;99.90;;;;;;5001719;28;20063;-76
2022/12/15 13:25:52;;;;;;;12.77;5.27;;;3.00;99.90;;;;;;5036010;28;21062;-74
2022/12/15 13:28:41;;;;;;;12.80;4.80;;;3.00;99.90;;;;;;5020653;28;20057;-75
2022/12/15 13:31:16;;;;;;;13.93;5.07;;;2.90;99.90;;;;;;5035731;28;20057;-75
2022/12/15 13:33:45;;;;;;;12.60;4.97;;;3.00;99.90;;;;;;5033642;28;20108;-74
2022/12/15 13:36:10;;;;;;;16.20;5.20;;;3.00;99.90;;;;;;5029022;28;20068;-76
2022/12/15 13:38:56;;;;;;;13.40;5.13;;;3.10;99.90;;;;;;5028157;28;20464;-74
2022/12/15 13:41:23;;;;;;;11.10;5.13;;;2.90;99.90;;;;;;5035329;28;20065;-74
2022/12/15 13:43:52;;;;;;;13.20;4.97;;;2.90;99.90;;;;;;5035169;28;20457;-77
2022/12/15 13:46:28;;;;;;;10.40;4.43;;;3.00;99.90;;;;;;5024608;28;20406;-75
2022/12/15 13:49:12;;;;;;;12.60;5.10;;;2.90;99.90;;;;;;5031042;28;20349;-75
2022/12/15 13:51:44;;;;;;;13.50;5.10;;;3.10;99.90;;;;;;5035051;28;20052;-75
2022/12/15 13:54:30;;;;;;;10.00;4.70;;;2.70;99.90;;;;;;5032946;28;20449;-77
2022/12/15 13:57:18;;;;;;;13.40;4.60;;;2.70;99.90;;;;;;5021712;28;20065;-76
2022/12/15 13:59:47;;;;;;;14.83;4.93;;;2.70;99.90;;;;;;5032394;28;20106;-75
2022/12/15 14:02:27;;;;;;;14.97;4.90;;;2.60;99.90;;;;;;5031469;28;20052;-74
2022/12/15 14:05:10;;;;;;;12.17;4.43;;;2.60;99.90;;;;;;5034087;28;20067;-78
2022/12/15 14:07:36;;;;;;;12.17;4.83;;;2.60;99.90;;;;;;5019439;28;20475;-76
2022/12/15 14:10:06;;;;;;;12.97;5.03;;;2.50;99.90;;;;;;5017558;28;20057;-75
2022/12/15 14:12:32;;;;;;;9.63;4.83;;;2.60;99.90;;;;;;5016523;28;20045;-75
2022/12/15 14:14:58;;;;;;;12.33;5.03;;;2.60;99.90;;;;;;5034410;28;20056;-75
2022/12/15 14:17:24;;;;;;;13.00;5.40;;;2.60;99.90;;;;;;5023226;28;20045;-74
2022/12/15 14:19:50;;;;;;;13.27;5.10;;;2.60;99.90;;;;;;5038325;28;20291;-76
2022/12/15 14:22:28;;;;;;;13.93;4.80;;;2.60;99.90;;;;;;5038121;28;20045;-76
2022/12/15 14:25:25;;;;;;;9.63;5.10;;;2.70;99.90;;;;;;5037075;28;20085;-77
2022/12/15 14:27:52;;;;;;;11.80;4.80;;;2.60;99.90;;;;;;5000793;28;20110;-77
2022/12/15 14:30:21;;;;;;;14.07;4.87;;;2.60;99.90;;;;;;5003976;28;20059;-77
2022/12/15 14:32:52;;;;;;;12.43;4.83;;;2.60;99.90;;;;;;5037525;28;20461;-73
2022/12/15 14:35:29;;;;;;;15.98;5.10;;;2.70;99.90;;;;;;5038317;28;20049;-77
2022/12/15 14:37:57;;;;;;;16.90;5.03;;;2.60;99.90;;;;;;5024495;28;20120;-75
2022/12/15 14:40:24;;;;;;;14.27;4.67;;;2.70;99.90;;;;;;5039639;28;20057;-76
2022/12/15 14:42:53;;;;;;;16.00;5.13;;;2.80;99.90;;;;;;5038424;28;20045;-77
2022/12/15 14:45:25;;;;;;;15.40;5.00;;;2.60;99.90;;;;;;5038031;28;20059;-74
2022/12/15 14:47:52;;;;;;;;;;;2.60;99.90;;;;;;5006014;28;20049;-75
2022/12/15 14:50:19;;;;;;;11.43;4.93;;;2.60;99.90;;;;;;5039029;28;19929;-73
2022/12/15 14:52:45;;;;;;;14.63;5.43;;;2.60;99.90;;;;;;5037462;28;20048;-73
2022/12/15 14:55:20;;;;;;;15.77;6.73;;;2.60;99.90;;;;;;5036561;28;20103;-74
2022/12/15 14:57:48;;;;;;;14.87;6.20;;;2.50;99.90;;;;;;5004657;28;20449;-74
2022/12/15 15:00:46;;;;;;;18.23;6.50;;;2.40;99.90;;;;;;5020933;28;20052;-74
2022/12/15 15:03:17;;;;;;;22.17;7.27;;;2.30;99.90;;;;;;5046933;28;20049;-75
2022/12/15 15:05:45;;;;;;;12.07;6.80;;;2.20;99.90;;;;;;5050514;28;20060;-75
2022/12/15 15:08:21;;;;;;;19.77;6.43;;;2.10;99.90;;;;;;5033794;28;20182;-75
2022/12/15 15:10:47;;;;;;;17.10;6.93;;;2.00;99.90;;;;;;5035797;28;20499;-75
2022/12/15 15:13:22;;;;;;;15.47;7.70;;;2.00;99.90;;;;;;5037580;28;20106;-75
2022/12/15 15:15:59;;;;;;;19.90;7.27;;;2.20;99.90;;;;;;5037359;28;20414;-74
2022/12/15 15:18:27;;;;;;;17.97;7.43;;;1.90;99.90;;;;;;5021760;28;20094;-75
2022/12/15 15:21:01;;;;;;;21.67;7.53;;;1.80;99.90;;;;;;5038927;28;20060;-74
2022/12/15 15:23:26;;;;;;;13.80;7.57;;;1.70;99.90;;;;;;5036852;28;20474;-74
2022/12/15 15:25:55;;;;;;;15.50;7.60;;;1.70;99.90;;;;;;5035558;28;20530;-77
2022/12/15 15:28:27;;;;;;;18.00;7.70;;;1.60;99.90;;;;;;5022641;28;21403;-77
2022/12/15 15:30:53;;;;;;;;;;;1.60;99.90;;;;;;5037912;28;20056;-73
2022/12/15 15:33:20;;;;;;;18.30;7.53;;;1.50;99.90;;;;;;5037435;28;19928;-77